AAL1327 KTYS-KCRP
Flight info
| Callsign | AAL1327 |
|---|---|
| Flight time | 2h 19m |
| Altitude | 34000 |
| Route | DCT RESPE DCT BEATS DCT EMG DCT CLL DCT CRP DCT |
| Aircraft | B738/M-SDE2E3FGHIRWXY/LB1 |
Departure
| Time | 2026-04-23 16:43 |
|---|---|
| Airport | McGhee Tyson Airport (KTYS) |
Arrival
| Time | 2026-04-23 19:02 |
|---|---|
| Airport | Corpus Christi International Airport (KCRP) |
| Time | Latitude | Longitude | Altitude | Speed | Heading |
|---|---|---|---|---|---|
| 2026-04-23 16:30 | 35.80726 | -83.99110 | 960 ft | 0 kts | 134° |
| 2026-04-23 16:36 | 35.80734 | -83.99122 | 956 ft | 2 kts | 131° |
| 2026-04-23 16:37 | 35.80745 | -83.99137 | 956 ft | 2 kts | 127° |
| 2026-04-23 16:37 | 35.80755 | -83.99154 | 958 ft | 2 kts | 121° |
| 2026-04-23 16:37 | 35.80762 | -83.99172 | 956 ft | 2 kts | 105° |
| 2026-04-23 16:37 | 35.80763 | -83.99192 | 956 ft | 2 kts | 70° |
| 2026-04-23 16:38 | 35.80756 | -83.99207 | 955 ft | 1 kts | 47° |
| 2026-04-23 16:38 | 35.80754 | -83.99210 | 960 ft | 0 kts | 46° |
| 2026-04-23 16:39 | 35.80766 | -83.99196 | 957 ft | 5 kts | 44° |
| 2026-04-23 16:39 | 35.80813 | -83.99138 | 960 ft | 14 kts | 45° |
| 2026-04-23 16:39 | 35.80867 | -83.99072 | 962 ft | 18 kts | 44° |
| 2026-04-23 16:39 | 35.81025 | -83.98990 | 964 ft | 19 kts | 45° |
| 2026-04-23 16:40 | 35.81118 | -83.98875 | 963 ft | 19 kts | 44° |
| 2026-04-23 16:40 | 35.81211 | -83.98765 | 964 ft | 18 kts | 45° |
| 2026-04-23 16:40 | 35.81271 | -83.98694 | 963 ft | 18 kts | 44° |
| 2026-04-23 16:40 | 35.81362 | -83.98583 | 965 ft | 21 kts | 45° |
| 2026-04-23 16:41 | 35.81475 | -83.98444 | 965 ft | 25 kts | 44° |
| 2026-04-23 16:41 | 35.81581 | -83.98338 | 975 ft | 0 kts | 13° |
| 2026-04-23 16:41 | 35.81615 | -83.98344 | 979 ft | 10 kts | 333° |
| 2026-04-23 16:42 | 35.81608 | -83.98452 | 968 ft | 19 kts | 227° |
| 2026-04-23 16:42 | 35.81368 | -83.98745 | 964 ft | 87 kts | 224° |
| 2026-04-23 16:42 | 35.80757 | -83.99491 | 956 ft | 157 kts | 225° |
| 2026-04-23 16:42 | 35.79876 | -84.00571 | 1354 ft | 192 kts | 225° |
| 2026-04-23 16:43 | 35.78923 | -84.01828 | 2049 ft | 206 kts | 236° |
| 2026-04-23 16:43 | 35.78504 | -84.03449 | 3242 ft | 195 kts | 258° |
| 2026-04-23 16:43 | 35.78143 | -84.05120 | 3728 ft | 217 kts | 256° |
| 2026-04-23 16:43 | 35.77766 | -84.07011 | 3986 ft | 238 kts | 255° |
| 2026-04-23 16:44 | 35.77323 | -84.09075 | 4462 ft | 256 kts | 256° |
| 2026-04-23 16:44 | 35.76869 | -84.11203 | 5352 ft | 256 kts | 256° |
| 2026-04-23 16:44 | 35.76405 | -84.13328 | 6195 ft | 259 kts | 256° |
| 2026-04-23 16:44 | 35.75939 | -84.15502 | 6878 ft | 264 kts | 256° |
| 2026-04-23 16:45 | 35.75464 | -84.17706 | 7631 ft | 267 kts | 256° |
| 2026-04-23 16:45 | 35.74986 | -84.19926 | 8419 ft | 269 kts | 255° |
| 2026-04-23 16:45 | 35.74501 | -84.22175 | 9140 ft | 274 kts | 255° |
| 2026-04-23 16:45 | 35.74008 | -84.24450 | 9927 ft | 277 kts | 255° |
| 2026-04-23 16:46 | 35.73507 | -84.26755 | 10474 ft | 288 kts | 255° |
| 2026-04-23 16:46 | 35.72974 | -84.29233 | 10652 ft | 311 kts | 255° |
| 2026-04-23 16:46 | 35.72402 | -84.31898 | 10866 ft | 330 kts | 255° |
| 2026-04-23 16:46 | 35.71801 | -84.34666 | 11346 ft | 339 kts | 255° |
| 2026-04-23 16:47 | 35.71187 | -84.37494 | 11995 ft | 343 kts | 255° |
| 2026-04-23 16:47 | 35.70567 | -84.40342 | 12706 ft | 345 kts | 255° |
| 2026-04-23 16:47 | 35.69940 | -84.43210 | 13404 ft | 349 kts | 255° |
| 2026-04-23 16:47 | 35.69309 | -84.46104 | 14060 ft | 353 kts | 255° |
| 2026-04-23 16:48 | 35.68667 | -84.49038 | 14641 ft | 356 kts | 255° |
| 2026-04-23 16:48 | 35.68022 | -84.51998 | 15219 ft | 360 kts | 255° |
| 2026-04-23 16:48 | 35.67369 | -84.54982 | 15799 ft | 363 kts | 255° |
| 2026-04-23 16:48 | 35.66715 | -84.57968 | 16352 ft | 368 kts | 256° |
| 2026-04-23 16:49 | 35.66044 | -84.61024 | 16911 ft | 372 kts | 256° |
| 2026-04-23 16:49 | 35.65366 | -84.64111 | 17462 ft | 376 kts | 256° |
| 2026-04-23 16:49 | 35.64679 | -84.67232 | 18008 ft | 380 kts | 256° |
| 2026-04-23 16:49 | 35.63984 | -84.70386 | 18555 ft | 384 kts | 256° |
| 2026-04-23 16:50 | 35.63282 | -84.73573 | 19041 ft | 387 kts | 256° |
| 2026-04-23 16:50 | 35.62575 | -84.76776 | 19542 ft | 389 kts | 256° |
| 2026-04-23 16:50 | 35.61862 | -84.80000 | 20009 ft | 393 kts | 256° |
| 2026-04-23 16:50 | 35.61141 | -84.83256 | 20491 ft | 395 kts | 256° |
| 2026-04-23 16:51 | 35.60415 | -84.86530 | 20962 ft | 398 kts | 256° |
| 2026-04-23 16:51 | 35.59685 | -84.89817 | 21440 ft | 401 kts | 256° |
| 2026-04-23 16:51 | 35.58893 | -84.93116 | 21882 ft | 404 kts | 252° |
| 2026-04-23 16:51 | 35.57904 | -84.96379 | 22308 ft | 408 kts | 250° |
| 2026-04-23 16:52 | 35.56849 | -84.99627 | 22739 ft | 411 kts | 250° |
| 2026-04-23 16:52 | 35.55782 | -85.02846 | 23178 ft | 414 kts | 249° |
| 2026-04-23 16:52 | 35.54691 | -85.06129 | 23601 ft | 416 kts | 250° |
| 2026-04-23 16:52 | 35.53599 | -85.09434 | 23956 ft | 419 kts | 250° |
| 2026-04-23 16:53 | 35.52505 | -85.12766 | 24289 ft | 422 kts | 250° |
| 2026-04-23 16:53 | 35.51407 | -85.16125 | 24627 ft | 425 kts | 250° |
| 2026-04-23 16:53 | 35.50306 | -85.19507 | 24962 ft | 428 kts | 250° |
| 2026-04-23 16:53 | 35.49200 | -85.22906 | 25277 ft | 431 kts | 250° |
| 2026-04-23 16:54 | 35.48082 | -85.26345 | 25600 ft | 433 kts | 250° |
| 2026-04-23 16:54 | 35.46961 | -85.29790 | 25914 ft | 436 kts | 250° |
| 2026-04-23 16:54 | 35.45833 | -85.33251 | 26219 ft | 439 kts | 250° |
| 2026-04-23 16:54 | 35.44696 | -85.36738 | 26517 ft | 441 kts | 250° |
| 2026-04-23 16:55 | 35.43552 | -85.40239 | 26812 ft | 444 kts | 250° |
| 2026-04-23 16:55 | 35.42412 | -85.43725 | 27084 ft | 447 kts | 250° |
| 2026-04-23 16:55 | 35.41251 | -85.47270 | 27356 ft | 449 kts | 250° |
| 2026-04-23 16:55 | 35.40082 | -85.50837 | 27629 ft | 452 kts | 250° |
| 2026-04-23 16:56 | 35.38907 | -85.54413 | 27905 ft | 454 kts | 250° |
| 2026-04-23 16:56 | 35.37725 | -85.58011 | 28174 ft | 456 kts | 250° |
| 2026-04-23 16:56 | 35.36534 | -85.61628 | 28429 ft | 459 kts | 250° |
| 2026-04-23 16:56 | 35.35332 | -85.65276 | 28679 ft | 461 kts | 250° |
| 2026-04-23 16:57 | 35.34128 | -85.68929 | 28990 ft | 462 kts | 250° |
| 2026-04-23 16:57 | 35.32922 | -85.72578 | 29383 ft | 461 kts | 250° |
| 2026-04-23 16:57 | 35.31718 | -85.76218 | 29795 ft | 460 kts | 250° |
| 2026-04-23 16:57 | 35.30514 | -85.79852 | 30141 ft | 460 kts | 250° |
| 2026-04-23 16:58 | 35.29310 | -85.83485 | 30430 ft | 461 kts | 250° |
| 2026-04-23 16:58 | 35.28119 | -85.87075 | 30724 ft | 461 kts | 250° |
| 2026-04-23 16:58 | 35.26916 | -85.90695 | 31064 ft | 459 kts | 250° |
| 2026-04-23 16:58 | 35.25714 | -85.94307 | 31404 ft | 458 kts | 250° |
| 2026-04-23 16:59 | 35.24513 | -85.97914 | 31698 ft | 457 kts | 250° |
| 2026-04-23 16:59 | 35.23312 | -86.01516 | 31976 ft | 457 kts | 250° |
| 2026-04-23 16:59 | 35.22109 | -86.05120 | 32253 ft | 457 kts | 250° |
| 2026-04-23 16:59 | 35.20908 | -86.08714 | 32555 ft | 455 kts | 250° |
| 2026-04-23 17:00 | 35.19707 | -86.12303 | 32850 ft | 455 kts | 250° |
| 2026-04-23 17:00 | 35.18507 | -86.15885 | 33123 ft | 454 kts | 250° |
| 2026-04-23 17:00 | 35.17309 | -86.19455 | 33411 ft | 453 kts | 250° |
| 2026-04-23 17:00 | 35.16114 | -86.23014 | 33692 ft | 452 kts | 250° |
| 2026-04-23 17:01 | 35.14919 | -86.26570 | 33944 ft | 452 kts | 250° |
| 2026-04-23 17:01 | 35.13721 | -86.30130 | 34160 ft | 453 kts | 250° |
| 2026-04-23 17:01 | 35.11327 | -86.37233 | 34158 ft | 454 kts | 250° |
| 2026-04-23 17:02 | 35.08924 | -86.44340 | 34175 ft | 451 kts | 250° |
| 2026-04-23 17:02 | 35.06531 | -86.51402 | 34157 ft | 448 kts | 250° |
| 2026-04-23 17:03 | 35.04151 | -86.58416 | 34166 ft | 446 kts | 250° |
| 2026-04-23 17:03 | 35.01814 | -86.65284 | 34163 ft | 446 kts | 250° |
| 2026-04-23 17:04 | 34.99444 | -86.72235 | 34166 ft | 447 kts | 250° |
| 2026-04-23 17:04 | 34.97048 | -86.79248 | 34154 ft | 449 kts | 250° |
| 2026-04-23 17:05 | 34.94637 | -86.86290 | 34140 ft | 452 kts | 250° |
| 2026-04-23 17:05 | 34.92199 | -86.93391 | 34135 ft | 456 kts | 250° |
| 2026-04-23 17:06 | 34.89737 | -87.00544 | 34138 ft | 458 kts | 250° |
| 2026-04-23 17:06 | 34.87282 | -87.07658 | 34131 ft | 459 kts | 250° |
| 2026-04-23 17:07 | 34.84802 | -87.14830 | 34129 ft | 458 kts | 250° |
| 2026-04-23 17:07 | 34.82330 | -87.21963 | 34121 ft | 456 kts | 250° |
| 2026-04-23 17:08 | 34.79866 | -87.29058 | 34116 ft | 454 kts | 250° |
| 2026-04-23 17:08 | 34.77424 | -87.36074 | 34111 ft | 452 kts | 250° |
| 2026-04-23 17:09 | 34.74971 | -87.43107 | 34114 ft | 450 kts | 249° |
| 2026-04-23 17:09 | 34.72526 | -87.50099 | 34118 ft | 448 kts | 249° |
| 2026-04-23 17:10 | 34.70084 | -87.57070 | 34116 ft | 447 kts | 249° |
| 2026-04-23 17:10 | 34.67643 | -87.64029 | 34126 ft | 448 kts | 249° |
| 2026-04-23 17:11 | 34.65195 | -87.70987 | 34113 ft | 448 kts | 249° |
| 2026-04-23 17:11 | 34.62768 | -87.77918 | 34115 ft | 449 kts | 249° |
| 2026-04-23 17:12 | 34.60320 | -87.84907 | 34110 ft | 450 kts | 249° |
| 2026-04-23 17:12 | 34.57865 | -87.91901 | 34113 ft | 451 kts | 249° |
| 2026-04-23 17:13 | 34.55396 | -87.98915 | 34105 ft | 452 kts | 249° |
| 2026-04-23 17:13 | 34.52918 | -88.05937 | 34106 ft | 453 kts | 249° |
| 2026-04-23 17:14 | 34.50433 | -88.12965 | 34099 ft | 454 kts | 249° |
| 2026-04-23 17:14 | 34.47958 | -88.19949 | 34097 ft | 454 kts | 249° |
| 2026-04-23 17:15 | 34.45464 | -88.26968 | 34099 ft | 453 kts | 249° |
| 2026-04-23 17:15 | 34.42969 | -88.33977 | 34115 ft | 452 kts | 249° |
| 2026-04-23 17:16 | 34.40476 | -88.40967 | 34095 ft | 452 kts | 248° |
| 2026-04-23 17:16 | 34.37981 | -88.47945 | 34093 ft | 451 kts | 248° |
| 2026-04-23 17:17 | 34.35486 | -88.54908 | 34109 ft | 450 kts | 248° |
| 2026-04-23 17:17 | 34.32989 | -88.61861 | 34096 ft | 450 kts | 248° |
| 2026-04-23 17:18 | 34.29259 | -88.72218 | 34102 ft | 449 kts | 248° |
| 2026-04-23 17:19 | 34.26757 | -88.79148 | 34098 ft | 449 kts | 248° |
| 2026-04-23 17:19 | 34.24251 | -88.86075 | 34096 ft | 449 kts | 248° |
| 2026-04-23 17:20 | 34.21742 | -88.92996 | 34091 ft | 449 kts | 248° |
| 2026-04-23 17:21 | 34.16732 | -89.06770 | 34091 ft | 449 kts | 248° |
| 2026-04-23 17:21 | 34.12956 | -89.17111 | 34086 ft | 449 kts | 248° |
| 2026-04-23 17:22 | 34.09170 | -89.27449 | 34084 ft | 449 kts | 247° |
| 2026-04-23 17:23 | 34.05373 | -89.37782 | 34077 ft | 449 kts | 247° |
| 2026-04-23 17:24 | 34.01568 | -89.48105 | 34074 ft | 449 kts | 247° |
| 2026-04-23 17:24 | 33.97770 | -89.58376 | 34076 ft | 449 kts | 247° |
| 2026-04-23 17:25 | 33.93954 | -89.68663 | 34072 ft | 448 kts | 247° |
| 2026-04-23 17:26 | 33.88859 | -89.82349 | 34073 ft | 448 kts | 246° |
| 2026-04-23 17:27 | 33.85024 | -89.92612 | 34072 ft | 447 kts | 247° |
| 2026-04-23 17:27 | 33.82901 | -89.98280 | 34068 ft | 447 kts | 246° |
| 2026-04-23 17:28 | 33.80369 | -90.05028 | 34053 ft | 432 kts | 246° |
| 2026-04-23 17:28 | 33.79147 | -90.08279 | 34047 ft | 421 kts | 246° |
| 2026-04-23 17:28 | 33.77947 | -90.11469 | 34064 ft | 417 kts | 246° |
| 2026-04-23 17:29 | 33.75533 | -90.17875 | 34075 ft | 424 kts | 246° |
| 2026-04-23 17:30 | 33.71853 | -90.27622 | 34073 ft | 433 kts | 246° |
| 2026-04-23 17:30 | 33.68111 | -90.37500 | 34053 ft | 431 kts | 245° |
| 2026-04-23 17:31 | 33.65650 | -90.43981 | 34047 ft | 423 kts | 245° |
| 2026-04-23 17:31 | 33.63212 | -90.50389 | 34053 ft | 421 kts | 245° |
| 2026-04-23 17:32 | 33.60778 | -90.56773 | 34042 ft | 420 kts | 245° |
| 2026-04-23 17:32 | 33.58345 | -90.63146 | 34055 ft | 420 kts | 245° |
| 2026-04-23 17:33 | 33.55906 | -90.69521 | 34058 ft | 421 kts | 245° |
| 2026-04-23 17:33 | 33.53453 | -90.75917 | 34062 ft | 422 kts | 245° |
| 2026-04-23 17:34 | 33.51006 | -90.82289 | 34056 ft | 424 kts | 245° |
| 2026-04-23 17:35 | 33.47293 | -90.91934 | 34057 ft | 426 kts | 245° |
| 2026-04-23 17:35 | 33.43556 | -91.01611 | 34060 ft | 427 kts | 245° |
| 2026-04-23 17:36 | 33.41055 | -91.08072 | 34053 ft | 428 kts | 245° |
| 2026-04-23 17:36 | 33.38563 | -91.14501 | 34057 ft | 428 kts | 245° |
| 2026-04-23 17:37 | 33.36054 | -91.20957 | 34057 ft | 427 kts | 245° |
| 2026-04-23 17:38 | 33.32293 | -91.30616 | 34046 ft | 427 kts | 245° |
| 2026-04-23 17:38 | 33.29783 | -91.37044 | 34046 ft | 426 kts | 245° |
| 2026-04-23 17:39 | 33.27276 | -91.43455 | 34048 ft | 425 kts | 245° |
| 2026-04-23 17:39 | 33.24768 | -91.49855 | 34045 ft | 425 kts | 245° |
| 2026-04-23 17:40 | 33.22277 | -91.56200 | 34045 ft | 424 kts | 245° |
| 2026-04-23 17:40 | 33.19771 | -91.62570 | 34040 ft | 423 kts | 245° |
| 2026-04-23 17:41 | 33.17268 | -91.68923 | 34049 ft | 423 kts | 245° |
| 2026-04-23 17:41 | 33.13506 | -91.78448 | 34045 ft | 422 kts | 245° |
| 2026-04-23 17:42 | 33.09737 | -91.87966 | 34040 ft | 423 kts | 245° |
| 2026-04-23 17:43 | 33.07237 | -91.94263 | 34040 ft | 423 kts | 246° |
| 2026-04-23 17:43 | 33.04712 | -92.00611 | 34042 ft | 424 kts | 246° |
| 2026-04-23 17:44 | 33.02182 | -92.06960 | 34045 ft | 424 kts | 246° |
| 2026-04-23 17:44 | 32.98369 | -92.16510 | 34044 ft | 425 kts | 246° |
| 2026-04-23 17:45 | 32.94556 | -92.26031 | 34043 ft | 426 kts | 246° |
| 2026-04-23 17:46 | 32.90725 | -92.35569 | 34034 ft | 425 kts | 246° |
| 2026-04-23 17:46 | 32.88170 | -92.41918 | 34026 ft | 425 kts | 246° |
| 2026-04-23 17:47 | 32.85613 | -92.48258 | 34032 ft | 424 kts | 246° |
| 2026-04-23 17:48 | 32.81801 | -92.57692 | 34029 ft | 423 kts | 246° |
| 2026-04-23 17:48 | 32.79253 | -92.63981 | 34025 ft | 422 kts | 246° |
| 2026-04-23 17:49 | 32.76705 | -92.70261 | 34032 ft | 421 kts | 246° |
| 2026-04-23 17:49 | 32.74154 | -92.76535 | 34030 ft | 421 kts | 246° |
| 2026-04-23 17:50 | 32.71607 | -92.82792 | 34020 ft | 420 kts | 246° |
| 2026-04-23 17:50 | 32.67796 | -92.92127 | 34027 ft | 420 kts | 246° |
| 2026-04-23 17:51 | 32.65240 | -92.98376 | 34026 ft | 419 kts | 246° |
| 2026-04-23 17:52 | 32.61434 | -93.07658 | 34025 ft | 418 kts | 246° |
| 2026-04-23 17:52 | 32.57610 | -93.16962 | 34026 ft | 418 kts | 246° |
| 2026-04-23 17:53 | 32.53789 | -93.26234 | 34027 ft | 417 kts | 246° |
| 2026-04-23 17:54 | 32.51239 | -93.32408 | 34025 ft | 417 kts | 246° |
| 2026-04-23 17:54 | 32.47427 | -93.41619 | 34025 ft | 416 kts | 246° |
| 2026-04-23 17:55 | 32.43599 | -93.50846 | 34007 ft | 416 kts | 246° |
| 2026-04-23 17:56 | 32.41047 | -93.56983 | 34011 ft | 415 kts | 246° |
| 2026-04-23 17:56 | 32.36334 | -93.65632 | 34007 ft | 419 kts | 237° |
| 2026-04-23 17:57 | 32.32894 | -93.71149 | 34010 ft | 419 kts | 237° |
| 2026-04-23 17:58 | 32.27738 | -93.79471 | 34010 ft | 418 kts | 237° |
| 2026-04-23 17:58 | 32.24318 | -93.85017 | 34014 ft | 417 kts | 237° |
| 2026-04-23 17:59 | 32.20900 | -93.90561 | 34007 ft | 417 kts | 237° |
| 2026-04-23 17:59 | 32.17482 | -93.96095 | 34001 ft | 416 kts | 237° |
| 2026-04-23 18:00 | 32.14092 | -94.01578 | 33999 ft | 416 kts | 238° |
| 2026-04-23 18:00 | 32.10681 | -94.07086 | 33999 ft | 416 kts | 238° |
| 2026-04-23 18:01 | 32.07269 | -94.12587 | 33994 ft | 416 kts | 238° |
| 2026-04-23 18:01 | 32.03846 | -94.18097 | 33992 ft | 416 kts | 238° |
| 2026-04-23 18:02 | 32.00983 | -94.22700 | 33987 ft | 416 kts | 238° |
| 2026-04-23 18:02 | 31.97001 | -94.29093 | 33992 ft | 416 kts | 238° |
| 2026-04-23 18:03 | 31.93599 | -94.34546 | 33993 ft | 416 kts | 238° |
| 2026-04-23 18:03 | 31.90174 | -94.40030 | 33986 ft | 416 kts | 238° |
| 2026-04-23 18:04 | 31.86744 | -94.45511 | 33988 ft | 415 kts | 238° |
| 2026-04-23 18:04 | 31.83317 | -94.50981 | 33985 ft | 414 kts | 238° |
| 2026-04-23 18:05 | 31.79894 | -94.56436 | 33992 ft | 414 kts | 238° |
| 2026-04-23 18:05 | 31.76481 | -94.61868 | 33995 ft | 413 kts | 239° |
| 2026-04-23 18:06 | 31.73070 | -94.67289 | 34003 ft | 412 kts | 239° |
| 2026-04-23 18:06 | 31.69659 | -94.72703 | 33998 ft | 411 kts | 239° |
| 2026-04-23 18:07 | 31.66270 | -94.78074 | 33997 ft | 411 kts | 239° |
| 2026-04-23 18:07 | 31.62868 | -94.83458 | 33997 ft | 410 kts | 239° |
| 2026-04-23 18:08 | 31.60042 | -94.87925 | 33999 ft | 409 kts | 239° |
| 2026-04-23 18:08 | 31.56072 | -94.94192 | 33991 ft | 409 kts | 239° |
| 2026-04-23 18:09 | 31.52698 | -94.99511 | 33991 ft | 409 kts | 239° |
| 2026-04-23 18:09 | 31.49304 | -95.04853 | 33982 ft | 408 kts | 239° |
| 2026-04-23 18:10 | 31.45907 | -95.10192 | 33984 ft | 408 kts | 239° |
| 2026-04-23 18:10 | 31.42513 | -95.15520 | 33979 ft | 408 kts | 239° |
| 2026-04-23 18:11 | 31.39113 | -95.20850 | 33976 ft | 408 kts | 239° |
| 2026-04-23 18:11 | 31.35717 | -95.26165 | 33972 ft | 408 kts | 239° |
| 2026-04-23 18:12 | 31.32313 | -95.31486 | 33973 ft | 408 kts | 239° |
| 2026-04-23 18:12 | 31.28910 | -95.36798 | 33970 ft | 408 kts | 239° |
| 2026-04-23 18:13 | 31.25524 | -95.42078 | 33974 ft | 408 kts | 239° |
| 2026-04-23 18:13 | 31.22116 | -95.47382 | 33969 ft | 408 kts | 239° |
| 2026-04-23 18:14 | 31.19277 | -95.51798 | 33972 ft | 408 kts | 239° |
| 2026-04-23 18:14 | 31.15859 | -95.57106 | 33972 ft | 408 kts | 239° |
| 2026-04-23 18:15 | 31.12442 | -95.62405 | 33971 ft | 408 kts | 239° |
| 2026-04-23 18:15 | 31.09023 | -95.67699 | 33969 ft | 408 kts | 239° |
| 2026-04-23 18:16 | 31.05607 | -95.72982 | 33970 ft | 408 kts | 239° |
| 2026-04-23 18:16 | 31.02211 | -95.78227 | 33969 ft | 407 kts | 239° |
| 2026-04-23 18:17 | 30.97088 | -95.86128 | 33969 ft | 407 kts | 240° |
| 2026-04-23 18:17 | 30.93669 | -95.91391 | 33970 ft | 407 kts | 240° |
| 2026-04-23 18:18 | 30.90251 | -95.96645 | 33961 ft | 407 kts | 240° |
| 2026-04-23 18:18 | 30.86832 | -96.01895 | 33968 ft | 406 kts | 240° |
| 2026-04-23 18:19 | 30.83415 | -96.07135 | 33973 ft | 406 kts | 240° |
| 2026-04-23 18:19 | 30.79996 | -96.12369 | 33976 ft | 406 kts | 240° |
| 2026-04-23 18:20 | 30.76589 | -96.17581 | 33974 ft | 406 kts | 240° |
| 2026-04-23 18:20 | 30.73165 | -96.22811 | 33978 ft | 406 kts | 240° |
| 2026-04-23 18:21 | 30.69739 | -96.28036 | 33974 ft | 406 kts | 240° |
| 2026-04-23 18:21 | 30.66315 | -96.33256 | 33984 ft | 406 kts | 240° |
| 2026-04-23 18:22 | 30.62867 | -96.38457 | 33953 ft | 409 kts | 236° |
| 2026-04-23 18:22 | 30.60778 | -96.40763 | 33958 ft | 420 kts | 226° |
| 2026-04-23 18:22 | 30.58342 | -96.42683 | 33961 ft | 429 kts | 217° |
| 2026-04-23 18:23 | 30.55593 | -96.44136 | 33958 ft | 440 kts | 207° |
| 2026-04-23 18:23 | 30.49793 | -96.46379 | 33951 ft | 442 kts | 206° |
| 2026-04-23 18:24 | 30.40994 | -96.49702 | 33922 ft | 443 kts | 207° |
| 2026-04-23 18:25 | 30.32204 | -96.53090 | 33864 ft | 444 kts | 207° |
| 2026-04-23 18:25 | 30.26369 | -96.55352 | 33826 ft | 445 kts | 207° |
| 2026-04-23 18:26 | 30.20491 | -96.57628 | 33808 ft | 446 kts | 207° |
| 2026-04-23 18:26 | 30.14609 | -96.59901 | 33820 ft | 446 kts | 207° |
| 2026-04-23 18:27 | 30.08710 | -96.62178 | 33825 ft | 447 kts | 207° |
| 2026-04-23 18:27 | 30.02839 | -96.64440 | 33828 ft | 447 kts | 206° |
| 2026-04-23 18:28 | 29.96928 | -96.66716 | 33825 ft | 448 kts | 206° |
| 2026-04-23 18:28 | 29.91002 | -96.68994 | 33814 ft | 449 kts | 206° |
| 2026-04-23 18:29 | 29.85074 | -96.71270 | 33829 ft | 449 kts | 206° |
| 2026-04-23 18:29 | 29.79126 | -96.73551 | 33834 ft | 450 kts | 206° |
| 2026-04-23 18:30 | 29.73296 | -96.75772 | 33827 ft | 432 kts | 207° |
| 2026-04-23 18:30 | 29.67642 | -96.77934 | 33797 ft | 430 kts | 207° |
| 2026-04-23 18:30 | 29.64792 | -96.79028 | 33460 ft | 430 kts | 207° |
| 2026-04-23 18:31 | 29.61971 | -96.80105 | 33095 ft | 425 kts | 207° |
| 2026-04-23 18:31 | 29.59173 | -96.81172 | 32763 ft | 420 kts | 206° |
| 2026-04-23 18:31 | 29.56409 | -96.82226 | 32369 ft | 417 kts | 206° |
| 2026-04-23 18:31 | 29.53667 | -96.83271 | 32003 ft | 414 kts | 206° |
| 2026-04-23 18:32 | 29.50975 | -96.84297 | 31643 ft | 410 kts | 206° |
| 2026-04-23 18:32 | 29.48272 | -96.85327 | 31282 ft | 407 kts | 206° |
| 2026-04-23 18:32 | 29.45593 | -96.86347 | 30925 ft | 404 kts | 206° |
| 2026-04-23 18:32 | 29.42932 | -96.87360 | 30574 ft | 401 kts | 206° |
| 2026-04-23 18:33 | 29.40290 | -96.88365 | 30225 ft | 399 kts | 206° |
| 2026-04-23 18:33 | 29.37661 | -96.89365 | 29860 ft | 396 kts | 206° |
| 2026-04-23 18:33 | 29.35059 | -96.90354 | 29449 ft | 393 kts | 206° |
| 2026-04-23 18:33 | 29.32467 | -96.91338 | 29074 ft | 389 kts | 206° |
| 2026-04-23 18:34 | 29.29906 | -96.92309 | 28703 ft | 386 kts | 206° |
| 2026-04-23 18:34 | 29.27369 | -96.93270 | 28351 ft | 382 kts | 205° |
| 2026-04-23 18:34 | 29.24852 | -96.94225 | 27981 ft | 380 kts | 205° |
| 2026-04-23 18:34 | 29.22355 | -96.95172 | 27616 ft | 377 kts | 205° |
| 2026-04-23 18:35 | 29.19877 | -96.96110 | 27272 ft | 373 kts | 205° |
| 2026-04-23 18:35 | 29.17420 | -96.97040 | 26916 ft | 371 kts | 205° |
| 2026-04-23 18:35 | 29.14984 | -96.97962 | 26567 ft | 368 kts | 205° |
| 2026-04-23 18:35 | 29.12558 | -96.98880 | 26223 ft | 366 kts | 205° |
| 2026-04-23 18:36 | 29.10146 | -96.99792 | 25882 ft | 363 kts | 204° |
| 2026-04-23 18:36 | 29.07755 | -97.00695 | 25545 ft | 361 kts | 204° |
| 2026-04-23 18:36 | 29.05371 | -97.01596 | 25202 ft | 359 kts | 204° |
| 2026-04-23 18:36 | 29.03037 | -97.02477 | 24870 ft | 357 kts | 204° |
| 2026-04-23 18:37 | 29.00678 | -97.03367 | 24534 ft | 356 kts | 204° |
| 2026-04-23 18:37 | 28.98332 | -97.04252 | 24194 ft | 354 kts | 204° |
| 2026-04-23 18:37 | 28.95999 | -97.05131 | 23859 ft | 353 kts | 204° |
| 2026-04-23 18:37 | 28.93664 | -97.06011 | 23510 ft | 352 kts | 203° |
| 2026-04-23 18:38 | 28.91346 | -97.06884 | 23116 ft | 351 kts | 203° |
| 2026-04-23 18:38 | 28.89034 | -97.07754 | 22749 ft | 349 kts | 203° |
| 2026-04-23 18:38 | 28.86733 | -97.08619 | 22399 ft | 346 kts | 203° |
| 2026-04-23 18:38 | 28.84449 | -97.09477 | 22054 ft | 344 kts | 203° |
| 2026-04-23 18:39 | 28.82180 | -97.10330 | 21721 ft | 342 kts | 203° |
| 2026-04-23 18:39 | 28.79930 | -97.11175 | 21390 ft | 339 kts | 203° |
| 2026-04-23 18:39 | 28.77692 | -97.12015 | 21061 ft | 337 kts | 202° |
| 2026-04-23 18:39 | 28.75471 | -97.12848 | 20735 ft | 335 kts | 202° |
| 2026-04-23 18:40 | 28.73255 | -97.13680 | 20413 ft | 334 kts | 202° |
| 2026-04-23 18:40 | 28.71060 | -97.14503 | 20088 ft | 332 kts | 202° |
| 2026-04-23 18:40 | 28.68869 | -97.15324 | 19760 ft | 330 kts | 202° |
| 2026-04-23 18:40 | 28.66693 | -97.16139 | 19447 ft | 329 kts | 202° |
| 2026-04-23 18:41 | 28.64519 | -97.16953 | 19127 ft | 328 kts | 202° |
| 2026-04-23 18:41 | 28.62384 | -97.17753 | 18808 ft | 327 kts | 202° |
| 2026-04-23 18:41 | 28.60228 | -97.18559 | 18492 ft | 326 kts | 202° |
| 2026-04-23 18:41 | 28.58076 | -97.19364 | 18168 ft | 325 kts | 202° |
| 2026-04-23 18:42 | 28.55929 | -97.20167 | 17802 ft | 324 kts | 202° |
| 2026-04-23 18:42 | 28.53787 | -97.20967 | 17466 ft | 323 kts | 202° |
| 2026-04-23 18:42 | 28.51659 | -97.21762 | 17190 ft | 319 kts | 201° |
| 2026-04-23 18:42 | 28.49554 | -97.22547 | 16865 ft | 318 kts | 201° |
| 2026-04-23 18:43 | 28.47463 | -97.23327 | 16556 ft | 315 kts | 201° |
| 2026-04-23 18:43 | 28.45381 | -97.24104 | 16245 ft | 314 kts | 201° |
| 2026-04-23 18:43 | 28.43309 | -97.24876 | 15928 ft | 312 kts | 201° |
| 2026-04-23 18:43 | 28.41251 | -97.25643 | 15632 ft | 310 kts | 201° |
| 2026-04-23 18:44 | 28.39206 | -97.26405 | 15319 ft | 309 kts | 201° |
| 2026-04-23 18:44 | 28.37164 | -97.27166 | 15022 ft | 307 kts | 201° |
| 2026-04-23 18:44 | 28.35139 | -97.27919 | 14720 ft | 306 kts | 201° |
| 2026-04-23 18:44 | 28.33119 | -97.28671 | 14418 ft | 305 kts | 201° |
| 2026-04-23 18:45 | 28.31133 | -97.29410 | 14126 ft | 304 kts | 201° |
| 2026-04-23 18:45 | 28.29127 | -97.30156 | 13825 ft | 303 kts | 201° |
| 2026-04-23 18:45 | 28.27123 | -97.30900 | 13497 ft | 302 kts | 201° |
| 2026-04-23 18:45 | 28.25133 | -97.31639 | 13170 ft | 301 kts | 201° |
| 2026-04-23 18:46 | 28.23150 | -97.32377 | 12863 ft | 299 kts | 201° |
| 2026-04-23 18:46 | 28.21176 | -97.33110 | 12566 ft | 297 kts | 201° |
| 2026-04-23 18:46 | 28.19216 | -97.33838 | 12259 ft | 295 kts | 201° |
| 2026-04-23 18:46 | 28.17264 | -97.34560 | 11966 ft | 294 kts | 201° |
| 2026-04-23 18:47 | 28.15329 | -97.35278 | 11670 ft | 292 kts | 201° |
| 2026-04-23 18:47 | 28.13399 | -97.35992 | 11382 ft | 290 kts | 201° |
| 2026-04-23 18:47 | 28.11482 | -97.36704 | 11089 ft | 289 kts | 201° |
| 2026-04-23 18:47 | 28.09578 | -97.37409 | 10802 ft | 287 kts | 201° |
| 2026-04-23 18:48 | 28.07680 | -97.38112 | 10511 ft | 286 kts | 201° |
| 2026-04-23 18:48 | 28.05815 | -97.38802 | 10231 ft | 285 kts | 201° |
| 2026-04-23 18:48 | 28.03949 | -97.39493 | 10107 ft | 278 kts | 201° |
| 2026-04-23 18:48 | 28.02133 | -97.40164 | 9932 ft | 273 kts | 201° |
| 2026-04-23 18:49 | 28.00327 | -97.40832 | 9640 ft | 272 kts | 200° |
| 2026-04-23 18:49 | 27.98534 | -97.41496 | 9353 ft | 271 kts | 200° |
| 2026-04-23 18:49 | 27.96744 | -97.42158 | 9077 ft | 270 kts | 200° |
| 2026-04-23 18:49 | 27.94958 | -97.42816 | 8787 ft | 269 kts | 200° |
| 2026-04-23 18:50 | 27.93783 | -97.43250 | 8606 ft | 268 kts | 200° |
| 2026-04-23 18:50 | 27.91442 | -97.44161 | 8217 ft | 265 kts | 208° |
| 2026-04-23 18:50 | 27.90025 | -97.45447 | 8048 ft | 257 kts | 230° |
| 2026-04-23 18:50 | 27.89053 | -97.47138 | 7762 ft | 258 kts | 240° |
| 2026-04-23 18:51 | 27.88229 | -97.48938 | 7500 ft | 257 kts | 242° |
| 2026-04-23 18:51 | 27.87414 | -97.50733 | 7213 ft | 257 kts | 241° |
| 2026-04-23 18:51 | 27.86589 | -97.52515 | 6936 ft | 256 kts | 240° |
| 2026-04-23 18:51 | 27.85764 | -97.54274 | 6646 ft | 256 kts | 239° |
| 2026-04-23 18:52 | 27.84997 | -97.56097 | 6339 ft | 258 kts | 252° |
| 2026-04-23 18:52 | 27.84811 | -97.58118 | 6125 ft | 258 kts | 265° |
| 2026-04-23 18:52 | 27.84775 | -97.60113 | 5908 ft | 253 kts | 265° |
| 2026-04-23 18:52 | 27.84753 | -97.62076 | 5841 ft | 248 kts | 266° |
| 2026-04-23 18:53 | 27.84739 | -97.64007 | 5758 ft | 242 kts | 266° |
| 2026-04-23 18:53 | 27.84736 | -97.65852 | 5698 ft | 231 kts | 268° |
| 2026-04-23 18:53 | 27.85023 | -97.67603 | 5716 ft | 223 kts | 282° |
| 2026-04-23 18:53 | 27.85463 | -97.69252 | 5604 ft | 216 kts | 282° |
| 2026-04-23 18:54 | 27.85895 | -97.70822 | 5599 ft | 206 kts | 283° |
| 2026-04-23 18:54 | 27.86335 | -97.72392 | 5345 ft | 217 kts | 283° |
| 2026-04-23 18:54 | 27.86947 | -97.73974 | 4965 ft | 225 kts | 304° |
| 2026-04-23 18:54 | 27.88013 | -97.75280 | 4631 ft | 225 kts | 310° |
| 2026-04-23 18:55 | 27.89106 | -97.76499 | 4461 ft | 217 kts | 322° |
| 2026-04-23 18:55 | 27.90536 | -97.76941 | 4222 ft | 216 kts | 9° |
| 2026-04-23 18:55 | 27.91813 | -97.76185 | 4050 ft | 208 kts | 51° |
| 2026-04-23 18:55 | 27.92582 | -97.74830 | 3852 ft | 205 kts | 75° |
| 2026-04-23 18:56 | 27.92766 | -97.73802 | 3745 ft | 199 kts | 92° |
| 2026-04-23 18:56 | 27.92342 | -97.71876 | 3574 ft | 184 kts | 124° |
| 2026-04-23 18:56 | 27.91655 | -97.70687 | 3491 ft | 180 kts | 128° |
| 2026-04-23 18:56 | 27.90937 | -97.69528 | 3415 ft | 180 kts | 128° |
| 2026-04-23 18:57 | 27.90218 | -97.68372 | 3342 ft | 179 kts | 128° |
| 2026-04-23 18:57 | 27.89509 | -97.67226 | 3291 ft | 176 kts | 128° |
| 2026-04-23 18:57 | 27.88811 | -97.66094 | 3121 ft | 179 kts | 128° |
| 2026-04-23 18:57 | 27.88100 | -97.64938 | 2948 ft | 179 kts | 128° |
| 2026-04-23 18:58 | 27.87393 | -97.63791 | 2732 ft | 176 kts | 128° |
| 2026-04-23 18:58 | 27.86711 | -97.62681 | 2542 ft | 168 kts | 128° |
| 2026-04-23 18:58 | 27.86054 | -97.61610 | 2365 ft | 164 kts | 128° |
| 2026-04-23 18:58 | 27.85403 | -97.60551 | 2135 ft | 164 kts | 128° |
| 2026-04-23 18:59 | 27.84752 | -97.59493 | 1947 ft | 164 kts | 127° |
| 2026-04-23 18:59 | 27.84312 | -97.58792 | 1814 ft | 165 kts | 130° |
| 2026-04-23 18:59 | 27.83579 | -97.57830 | 1646 ft | 155 kts | 136° |
| 2026-04-23 18:59 | 27.82582 | -97.56712 | 1323 ft | 147 kts | 136° |
| 2026-04-23 19:00 | 27.81880 | -97.55943 | 1075 ft | 136 kts | 135° |
| 2026-04-23 19:00 | 27.81425 | -97.55430 | 818 ft | 139 kts | 134° |
| 2026-04-23 19:00 | 27.80752 | -97.54665 | 688 ft | 137 kts | 133° |
| 2026-04-23 19:00 | 27.80084 | -97.53920 | 596 ft | 132 kts | 135° |
| 2026-04-23 19:01 | 27.79429 | -97.53198 | 409 ft | 130 kts | 135° |
| 2026-04-23 19:01 | 27.78777 | -97.52503 | 284 ft | 128 kts | 135° |
| 2026-04-23 19:01 | 27.78137 | -97.51804 | 167 ft | 128 kts | 135° |
| 2026-04-23 19:01 | 27.77504 | -97.51119 | 56 ft | 120 kts | 135° |
| 2026-04-23 19:02 | 27.77185 | -97.50684 | 50 ft | 40 kts | 108° |
| 2026-04-23 19:02 | 27.77193 | -97.50420 | 49 ft | 31 kts | 49° |
| 2026-04-23 19:02 | 27.77290 | -97.50293 | 49 ft | 17 kts | 45° |